createdAt,value
2019-02-19T00:00:52.671Z,100237.53
2019-02-19T00:03:21.992Z,100232.27
2019-02-19T00:05:51.469Z,100235.17
2019-02-19T00:08:20.800Z,100198.48
2019-02-19T00:10:50.596Z,100231.13
2019-02-19T00:13:19.902Z,100242.70
2019-02-19T00:15:49.471Z,100227.47
2019-02-19T00:18:18.777Z,100173.00
2019-02-19T00:20:48.301Z,100242.83
2019-02-19T00:23:17.614Z,100195.61
2019-02-19T00:25:47.188Z,100246.75
2019-02-19T00:28:16.492Z,100240.33
2019-02-19T00:30:46.105Z,100253.33
2019-02-19T00:33:34.310Z,100238.52
2019-02-19T00:36:04.888Z,100221.05
2019-02-19T00:38:34.709Z,100218.04
2019-02-19T00:41:04.038Z,100223.04
2019-02-19T00:43:33.665Z,100219.23
2019-02-19T00:46:02.991Z,100213.98
2019-02-19T00:48:32.789Z,100206.05
2019-02-19T00:51:02.100Z,100199.63
2019-02-19T00:53:31.489Z,100205.32
2019-02-19T00:59:15.415Z,100196.01
2019-02-19T01:01:44.745Z,100201.90
2019-02-19T01:04:14.055Z,100171.30
2019-02-19T01:06:43.408Z,100187.41
2019-02-19T01:09:12.723Z,100169.91
2019-02-19T01:11:42.314Z,100165.59
2019-02-19T01:14:11.607Z,100153.38
2019-02-19T01:16:41.269Z,100149.86
2019-02-19T01:19:10.630Z,100143.95
2019-02-19T01:21:40.148Z,100146.20
2019-02-19T01:24:09.481Z,100148.40
2019-02-19T01:26:39.014Z,100142.33
2019-02-19T01:29:08.303Z,100138.84
2019-02-19T01:31:37.785Z,100136.22
2019-02-19T01:34:07.109Z,100134.91
2019-02-19T01:36:36.493Z,100132.35
2019-02-19T01:39:45.209Z,100125.41
2019-02-19T01:42:14.598Z,100123.17
2019-02-19T01:44:43.898Z,100060.19
2019-02-19T01:47:13.293Z,100096.36
2019-02-19T01:49:42.662Z,100053.94
2019-02-19T01:52:12.079Z,100096.88
2019-02-19T01:55:00.464Z,100094.64
2019-02-19T01:57:29.751Z,100092.50
2019-02-19T02:00:18.180Z,100083.77
2019-02-19T02:03:06.528Z,100081.52
2019-02-19T02:05:36.085Z,100081.52
2019-02-19T02:08:05.384Z,100065.27
2019-02-19T02:10:34.891Z,100059.09
2019-02-19T02:13:04.253Z,100064.61
2019-02-19T02:15:33.566Z,100062.38
2019-02-19T02:18:02.881Z,100047.16
2019-02-19T02:20:32.817Z,100044.67
2019-02-19T02:23:02.130Z,100051.95
2019-02-19T02:25:31.536Z,100050.56
2019-02-19T02:28:00.858Z,100004.76
2019-02-19T02:30:30.440Z,100042.70
2019-02-19T02:32:59.840Z,99989.58
2019-02-19T02:35:29.625Z,100042.84
2019-02-19T02:37:58.940Z,100036.28
2019-02-19T02:40:28.406Z,100031.03
2019-02-19T02:42:57.745Z,100011.89
2019-02-19T02:45:27.365Z,100014.84
2019-02-19T02:47:56.655Z,99974.61
2019-02-19T02:50:26.137Z,100001.25
2019-02-19T02:53:14.584Z,99991.17
2019-02-19T02:56:02.796Z,99991.55
2019-02-19T02:58:32.117Z,99983.31
2019-02-19T03:01:01.673Z,99980.13
2019-02-19T03:03:30.984Z,99980.55
2019-02-19T03:06:20.688Z,99974.73
2019-02-19T03:08:50.181Z,99874.42
2019-02-19T03:11:19.472Z,99967.28
2019-02-19T03:13:49.057Z,99949.30
2019-02-19T03:16:18.383Z,99946.53
2019-02-19T03:18:47.935Z,99950.02
2019-02-19T03:21:17.220Z,99837.30
2019-02-19T03:23:46.783Z,99937.58
2019-02-19T03:26:16.105Z,99922.28
2019-02-19T03:31:33.904Z,99917.59
2019-02-19T03:34:03.270Z,99928.39
2019-02-19T03:36:32.581Z,99919.63
2019-02-19T03:39:01.901Z,99926.18
2019-02-19T03:46:55.245Z,99916.59
2019-02-19T03:49:43.695Z,99907.97
2019-02-19T03:52:12.988Z,99906.47
2019-02-19T03:54:42.475Z,99891.21
2019-02-19T03:57:11.786Z,99901.70
2019-02-19T03:59:41.299Z,99903.02
2019-02-19T04:02:10.628Z,99894.36
2019-02-19T04:04:40.159Z,99896.20
2019-02-19T04:07:28.449Z,99893.58
2019-02-19T04:09:57.836Z,99894.52
2019-02-19T04:12:27.163Z,99895.89
2019-02-19T04:14:56.443Z,99898.06
2019-02-19T04:17:25.930Z,99896.34
2019-02-19T04:19:55.268Z,99889.79
2019-02-19T04:22:43.532Z,99889.41
2019-02-19T04:25:12.929Z,99890.49
2019-02-19T04:27:42.266Z,99888.25
2019-02-19T04:30:30.714Z,99890.01
2019-02-19T04:33:00.020Z,99885.25
2019-02-19T04:35:29.372Z,99882.22
2019-02-19T04:37:58.928Z,99883.78
2019-02-19T04:40:28.295Z,99873.74
2019-02-19T04:42:57.777Z,99872.58
2019-02-19T04:45:27.120Z,99870.89
2019-02-19T04:47:56.557Z,99865.58
2019-02-19T04:50:25.933Z,99864.71
2019-02-19T04:52:55.279Z,99859.09
2019-02-19T04:55:24.785Z,99855.91
2019-02-19T04:57:54.167Z,99835.02
2019-02-19T05:00:42.640Z,99842.80
2019-02-19T05:03:11.931Z,99837.56
2019-02-19T05:05:41.257Z,99834.18
2019-02-19T05:08:29.723Z,99824.59
2019-02-19T05:10:59.060Z,99829.46
2019-02-19T05:13:28.470Z,99821.59
2019-02-19T05:16:16.818Z,99821.37
2019-02-19T05:18:46.184Z,99819.72
2019-02-19T05:21:15.619Z,99812.49
2019-02-19T05:24:04.184Z,99806.39
2019-02-19T05:26:52.452Z,99803.47
2019-02-19T05:29:22.041Z,99733.20
2019-02-19T05:31:51.392Z,99753.80
2019-02-19T05:34:20.844Z,99797.55
2019-02-19T05:36:50.162Z,99793.69
2019-02-19T05:39:19.486Z,99794.70
2019-02-19T05:42:08.040Z,99746.38
2019-02-19T05:44:37.352Z,99788.03
2019-02-19T05:47:07.043Z,99785.97
2019-02-19T05:49:36.394Z,99791.58
2019-02-19T05:52:06.127Z,99784.66
2019-02-19T05:54:54.346Z,99787.73
2019-02-19T05:57:23.670Z,99792.11
2019-02-19T05:59:53.238Z,99789.90
2019-02-19T06:02:22.548Z,99784.17
2019-02-19T06:04:52.007Z,99784.51
2019-02-19T06:07:21.334Z,99786.72
2019-02-19T06:09:51.032Z,99784.25
2019-02-19T06:12:20.487Z,99791.06
2019-02-19T06:14:50.805Z,99784.10
2019-02-19T06:17:20.130Z,99789.34
2019-02-19T06:19:49.646Z,99782.03
2019-02-19T06:22:19.044Z,99777.17
2019-02-19T06:27:36.864Z,99679.14
2019-02-19T06:30:08.505Z,99779.08
2019-02-19T06:32:37.801Z,99773.02
2019-02-19T06:35:26.147Z,99791.35
2019-02-19T06:37:55.820Z,99772.08
2019-02-19T06:40:29.493Z,99777.47
2019-02-19T06:42:59.328Z,99774.84
2019-02-19T06:45:28.667Z,99774.84
2019-02-19T06:47:58.099Z,99773.84
2019-02-19T06:50:27.435Z,99770.39
2019-02-19T06:52:56.811Z,99772.08
2019-02-19T06:55:26.131Z,99761.59
2019-02-19T06:57:55.558Z,99766.84
2019-02-19T07:00:24.855Z,99765.00
2019-02-19T07:05:38.370Z,99763.70
2019-02-19T07:08:07.770Z,99753.73
2019-02-19T07:10:37.130Z,99741.95
2019-02-19T07:13:06.430Z,99742.87
2019-02-19T07:15:36.969Z,99734.45
2019-02-19T07:18:25.721Z,99737.48
2019-02-19T07:21:16.403Z,99733.15
2019-02-19T07:24:05.620Z,99740.70
2019-02-19T07:26:35.396Z,99757.29
2019-02-19T07:29:05.928Z,99752.95
2019-02-19T07:31:35.992Z,99762.53
2019-02-19T07:34:44.908Z,99763.28
2019-02-19T07:37:16.541Z,99696.19
2019-02-19T07:43:14.595Z,99707.76
2019-02-19T07:45:45.315Z,99751.34
2019-02-19T07:48:15.131Z,99755.69
2019-02-19T07:50:45.980Z,99749.95
2019-02-19T07:53:15.941Z,99749.58
2019-02-19T07:55:47.065Z,99742.17
2019-02-19T07:58:16.760Z,99747.27
2019-02-19T08:00:46.373Z,99742.02
2019-02-19T08:03:35.583Z,99738.88
2019-02-19T08:06:05.018Z,99728.02
2019-02-19T08:08:34.657Z,99736.78
2019-02-19T08:11:04.050Z,99725.14
2019-02-19T08:13:33.732Z,99717.13
2019-02-19T08:19:02.830Z,99711.51
2019-02-19T08:21:32.697Z,99715.66
2019-02-19T08:24:02.419Z,99658.63
2019-02-19T08:26:51.036Z,99709.75
2019-02-19T08:29:20.648Z,99704.43
2019-02-19T08:31:50.366Z,99614.84
2019-02-19T08:34:19.792Z,99707.88
2019-02-19T08:36:49.147Z,99710.91
2019-02-19T08:39:37.490Z,99707.95
2019-02-19T08:42:06.942Z,99714.05
2019-02-19T08:44:43.703Z,99709.67
2019-02-19T08:47:42.373Z,99698.94
2019-02-19T08:50:05.816Z,99693.72
2019-02-19T08:52:35.121Z,99692.70
2019-02-19T08:55:27.301Z,99686.16
2019-02-19T08:57:56.760Z,99682.16
2019-02-19T09:00:26.108Z,99680.69
2019-02-19T09:02:55.437Z,99677.28
2019-02-19T09:05:24.773Z,99678.22
2019-02-19T09:07:54.397Z,99669.95
2019-02-19T09:10:23.687Z,99663.96
2019-02-19T09:12:53.024Z,99668.48
2019-02-19T09:15:41.363Z,99666.80
2019-02-19T09:18:10.672Z,99675.34
2019-02-19T09:20:40.278Z,99678.60
2019-02-19T09:23:28.725Z,99648.22
2019-02-19T09:25:58.014Z,99666.55
2019-02-19T09:28:27.401Z,99668.88
2019-02-19T09:30:56.683Z,99618.18
2019-02-19T09:33:26.250Z,99656.94
2019-02-19T09:35:55.535Z,99662.17
2019-02-19T09:38:25.088Z,99661.42
2019-02-19T09:40:54.448Z,99588.67
2019-02-19T09:43:23.870Z,99657.23
2019-02-19T09:45:53.157Z,99601.12
2019-02-19T09:48:41.522Z,99657.33
2019-02-19T09:51:11.004Z,99663.80
2019-02-19T09:53:40.300Z,99651.02
2019-02-19T09:56:10.299Z,99654.50
2019-02-19T09:58:39.573Z,99555.30
2019-02-19T10:01:09.083Z,99648.96
2019-02-19T10:03:38.372Z,99653.27
2019-02-19T10:06:07.832Z,99647.77
2019-02-19T10:08:37.131Z,99644.31
2019-02-19T10:11:06.544Z,99646.19
2019-02-19T10:13:35.850Z,99601.31
2019-02-19T10:16:05.390Z,99640.78
2019-02-19T10:18:34.669Z,99640.09
2019-02-19T10:21:04.350Z,99625.14
2019-02-19T10:23:52.781Z,99586.34
2019-02-19T10:26:22.095Z,99636.69
2019-02-19T10:28:51.625Z,99633.00
2019-02-19T10:31:20.928Z,99606.47
2019-02-19T10:33:50.461Z,99635.70
2019-02-19T10:39:12.069Z,99642.53
2019-02-19T10:41:41.417Z,99635.05
2019-02-19T10:44:10.805Z,99638.60
2019-02-19T10:46:40.084Z,99638.98
2019-02-19T10:49:09.421Z,99638.12
2019-02-19T10:51:38.789Z,99638.60
2019-02-19T10:54:08.142Z,99645.33
2019-02-19T10:56:37.532Z,99627.71
2019-02-19T10:59:06.968Z,99627.06
2019-02-19T11:01:36.346Z,99615.27
2019-02-19T11:04:24.676Z,99614.89
2019-02-19T11:06:53.979Z,99618.51
2019-02-19T11:09:42.427Z,99617.78
2019-02-19T11:12:11.809Z,99617.70
2019-02-19T11:14:41.089Z,99613.78
2019-02-19T11:17:10.440Z,99612.39
2019-02-19T11:19:39.728Z,99607.44
2019-02-19T11:22:09.256Z,99607.81
2019-02-19T11:24:38.552Z,99607.23
2019-02-19T11:27:08.075Z,99597.11
2019-02-19T11:29:37.384Z,99592.19
2019-02-19T11:32:06.898Z,99593.34
2019-02-19T11:34:36.179Z,99586.09
2019-02-19T11:37:05.462Z,99597.29
2019-02-19T11:39:54.042Z,99593.44
2019-02-19T11:42:23.337Z,99589.51
2019-02-19T11:44:52.684Z,99587.50
2019-02-19T11:47:26.553Z,99552.25
2019-02-19T11:49:53.227Z,99585.00
2019-02-19T11:52:22.529Z,99588.53
2019-02-19T11:54:52.029Z,99579.66
2019-02-19T11:57:32.688Z,99583.89
2019-02-19T12:00:02.400Z,99581.79
2019-02-19T12:02:33.141Z,99582.98
2019-02-19T12:05:02.754Z,99581.24
2019-02-19T12:07:32.096Z,99580.30
2019-02-19T12:10:01.603Z,99583.91
2019-02-19T12:12:31.025Z,99590.16
2019-02-19T12:15:00.363Z,99576.63
2019-02-19T12:17:48.695Z,99530.13
2019-02-19T12:20:18.006Z,99577.50
2019-02-19T12:25:35.664Z,99534.02
2019-02-19T12:28:04.968Z,99578.80
2019-02-19T12:30:34.278Z,99575.16
2019-02-19T12:33:03.613Z,99537.50
2019-02-19T12:35:33.032Z,99572.22
2019-02-19T12:38:02.329Z,99567.55
2019-02-19T12:40:31.654Z,99567.04
2019-02-19T12:43:00.944Z,99564.64
2019-02-19T12:45:30.282Z,99563.62
2019-02-19T12:47:59.599Z,99486.56
2019-02-19T12:50:29.259Z,99568.61
2019-02-19T12:52:58.620Z,99573.52
2019-02-19T12:55:28.292Z,99575.95
2019-02-19T12:57:57.567Z,99519.63
2019-02-19T13:00:27.213Z,99573.41
2019-02-19T13:02:56.483Z,99572.92
2019-02-19T13:05:26.170Z,99573.14
2019-02-19T13:07:55.454Z,99573.14
2019-02-19T13:10:25.491Z,99576.69
2019-02-19T13:12:54.750Z,99571.44
2019-02-19T13:15:24.262Z,99571.95
2019-02-19T13:17:53.572Z,99577.59
2019-02-19T13:20:23.009Z,99577.42
2019-02-19T13:22:52.290Z,99574.06
2019-02-19T13:25:21.759Z,99575.05
2019-02-19T13:27:51.065Z,99583.72
2019-02-19T13:30:20.409Z,99582.05
2019-02-19T13:35:43.980Z,99571.11
2019-02-19T13:38:13.288Z,99531.07
2019-02-19T13:40:42.923Z,99576.45
2019-02-19T13:46:00.467Z,99581.94
2019-02-19T13:48:29.899Z,99580.63
2019-02-19T13:50:59.186Z,99540.19
2019-02-19T13:53:47.543Z,99582.53
2019-02-19T13:56:17.154Z,99584.04
2019-02-19T13:58:46.521Z,99488.88
2019-02-19T14:01:16.045Z,99582.73
2019-02-19T14:03:45.308Z,99573.63
2019-02-19T14:06:14.787Z,99581.52
2019-02-19T14:11:40.319Z,99586.87
2019-02-19T14:14:28.464Z,99545.09
2019-02-19T14:17:01.069Z,99581.95
2019-02-19T14:19:47.868Z,99571.25
2019-02-19T14:22:36.466Z,99581.94
2019-02-19T14:25:25.502Z,99582.02
2019-02-19T14:28:14.034Z,99581.69
2019-02-19T14:31:02.298Z,99589.72
2019-02-19T14:33:50.646Z,99488.68
2019-02-19T14:36:38.935Z,99589.72
2019-02-19T14:42:30.615Z,99591.35
2019-02-19T14:45:08.908Z,99597.75
2019-02-19T14:48:03.844Z,99528.30
2019-02-19T14:51:01.093Z,99544.16
2019-02-19T14:53:47.865Z,99586.70
2019-02-19T14:56:33.075Z,99584.81
2019-02-19T14:59:21.317Z,99582.28
2019-02-19T15:02:02.827Z,99579.65
2019-02-19T15:04:51.286Z,99585.67
2019-02-19T15:07:48.622Z,99537.25
2019-02-19T15:10:36.886Z,99583.91
2019-02-19T15:13:31.106Z,99592.44
2019-02-19T15:16:19.469Z,99592.44
2019-02-19T15:19:08.103Z,99602.20
2019-02-19T15:21:56.367Z,99591.63
2019-02-19T15:24:44.716Z,99587.87
2019-02-19T15:27:52.112Z,99501.28
2019-02-19T15:30:40.419Z,99581.44
2019-02-19T15:33:28.617Z,99592.11
2019-02-19T15:36:15.494Z,99580.30
2019-02-19T15:39:03.697Z,99592.11
2019-02-19T15:41:52.252Z,99591.17
2019-02-19T15:44:40.802Z,99584.41
2019-02-19T15:47:29.297Z,99587.97
2019-02-19T15:50:17.804Z,99535.48
2019-02-19T15:53:05.995Z,99580.08
2019-02-19T15:55:54.261Z,99590.23
2019-02-19T15:58:33.687Z,99583.20
2019-02-19T16:01:22.145Z,99577.13
2019-02-19T16:04:10.432Z,99590.70
2019-02-19T16:06:58.823Z,99578.97
2019-02-19T16:09:47.213Z,99580.81
2019-02-19T16:12:21.978Z,99542.21
2019-02-19T16:15:16.465Z,99585.94
2019-02-19T16:18:10.664Z,99590.73
2019-02-19T16:20:58.856Z,99589.02
2019-02-19T16:23:47.054Z,99587.33
2019-02-19T16:26:35.283Z,99604.83
2019-02-19T16:29:14.051Z,99608.40
2019-02-19T16:32:21.300Z,99605.48
2019-02-19T16:35:09.543Z,99609.17
2019-02-19T16:37:58.027Z,99611.95
2019-02-19T16:40:46.515Z,99613.43
2019-02-19T16:43:33.743Z,99611.74
2019-02-19T16:46:11.528Z,99609.28
2019-02-19T16:48:58.540Z,99615.62
2019-02-19T16:52:05.767Z,99627.87
2019-02-19T16:54:53.995Z,99612.38
2019-02-19T16:57:42.318Z,99611.39
2019-02-19T17:03:32.071Z,99615.64
2019-02-19T17:06:20.513Z,99579.20
2019-02-19T17:09:08.780Z,99574.27
2019-02-19T17:11:57.079Z,99618.02
2019-02-19T17:14:45.296Z,99602.98
2019-02-19T17:17:33.528Z,99611.45
2019-02-19T17:20:17.783Z,99615.95
2019-02-19T17:22:45.420Z,99623.80
2019-02-19T17:25:33.655Z,99617.03
2019-02-19T17:28:21.852Z,99623.33
2019-02-19T17:31:10.037Z,99639.98
2019-02-19T17:33:57.196Z,99633.44
2019-02-19T17:37:04.435Z,99637.73
2019-02-19T17:39:52.748Z,99633.66
2019-02-19T17:42:39.623Z,99626.36
2019-02-19T17:45:20.244Z,99629.51
2019-02-19T17:48:08.569Z,99637.45
2019-02-19T17:50:57.199Z,99638.83
2019-02-19T17:53:45.399Z,99636.18
2019-02-19T17:56:33.677Z,99649.83
2019-02-19T17:59:22.000Z,99647.09
2019-02-19T18:02:10.234Z,99646.94
2019-02-19T18:04:58.438Z,99649.64
2019-02-19T18:07:40.675Z,99652.95
2019-02-19T18:10:28.916Z,99654.34
2019-02-19T18:13:37.824Z,99651.80
2019-02-19T18:16:25.951Z,99614.88
2019-02-19T18:18:55.319Z,99655.16
2019-02-19T18:21:24.691Z,99654.84
2019-02-19T18:23:54.038Z,99646.57
2019-02-19T18:26:23.503Z,99662.05
2019-02-19T18:28:52.793Z,99664.03
2019-02-19T18:31:22.131Z,99676.59
2019-02-19T18:33:51.558Z,99677.52
2019-02-19T18:36:20.842Z,99688.52
2019-02-19T18:38:50.159Z,99688.59
2019-02-19T18:41:19.472Z,99688.52
2019-02-19T18:43:48.789Z,99691.20
2019-02-19T18:46:18.080Z,99689.03
2019-02-19T18:48:47.385Z,99695.72
2019-02-19T18:51:16.753Z,99691.41
2019-02-19T18:53:46.052Z,99700.20
2019-02-19T18:56:15.375Z,99705.95
2019-02-19T18:58:44.732Z,99707.26
2019-02-19T19:01:14.204Z,99715.11
2019-02-19T19:03:43.710Z,99714.97
2019-02-19T19:06:13.031Z,99714.17
2019-02-19T19:08:42.364Z,99730.02
2019-02-19T19:11:11.684Z,99724.02
2019-02-19T19:13:41.000Z,99732.77
2019-02-19T19:16:10.679Z,99718.93
2019-02-19T19:18:40.005Z,99739.72
2019-02-19T19:21:09.433Z,99736.25
2019-02-19T19:23:39.052Z,99680.96
2019-02-19T19:26:08.458Z,99743.09
2019-02-19T19:28:37.746Z,99744.16
2019-02-19T19:31:07.562Z,99755.42
2019-02-19T19:33:36.894Z,99708.25
2019-02-19T19:36:06.552Z,99755.56
2019-02-19T19:38:54.978Z,99751.09
2019-02-19T19:41:24.469Z,99767.71
2019-02-19T19:43:53.935Z,99771.26
2019-02-19T19:46:23.639Z,99768.23
2019-02-19T19:52:03.217Z,99765.37
2019-02-19T19:54:33.150Z,99779.76
2019-02-19T19:57:04.396Z,99777.94
2019-02-19T19:59:34.067Z,99792.45
2019-02-19T20:04:38.316Z,99790.22
2019-02-19T20:07:07.686Z,99783.68
2019-02-19T20:09:37.290Z,99794.15
2019-02-19T20:12:06.670Z,99799.52
2019-02-19T20:14:36.152Z,99805.16
2019-02-19T20:17:05.536Z,99809.98
2019-02-19T20:19:35.481Z,99815.28
2019-02-19T20:22:04.976Z,99822.68
2019-02-19T20:24:34.352Z,99822.02
2019-02-19T20:27:24.908Z,99835.09
2019-02-19T20:29:54.199Z,99824.25
2019-02-19T20:32:23.516Z,99827.00
2019-02-19T20:35:11.762Z,99809.87
2019-02-19T20:37:41.059Z,99816.47
2019-02-19T20:40:10.467Z,99821.32
2019-02-19T20:42:39.773Z,99822.69
2019-02-19T20:45:09.455Z,99829.74
2019-02-19T20:47:38.803Z,99830.25
2019-02-19T20:50:09.248Z,99834.17
2019-02-19T20:52:38.546Z,99836.92
2019-02-19T20:55:08.348Z,99836.16
2019-02-19T20:57:37.649Z,99844.77
2019-02-19T21:00:29.949Z,99852.62
2019-02-19T21:02:59.279Z,99857.08
2019-02-19T21:05:28.905Z,99855.48
2019-02-19T21:07:58.221Z,99855.55
2019-02-19T21:10:27.746Z,99855.61
2019-02-19T21:15:45.296Z,99849.20
2019-02-19T21:18:15.030Z,99859.28
2019-02-19T21:20:44.315Z,99857.53
2019-02-19T21:23:14.259Z,99853.19
2019-02-19T21:25:43.534Z,99855.73
2019-02-19T21:28:13.301Z,99848.69
2019-02-19T21:30:42.581Z,99854.44
2019-02-19T21:33:12.027Z,99857.05
2019-02-19T21:35:41.350Z,99870.13
2019-02-19T21:38:10.942Z,99863.77
2019-02-19T21:40:40.271Z,99858.09
2019-02-19T21:43:09.682Z,99863.71
2019-02-19T21:45:38.987Z,99866.33
2019-02-19T21:48:08.448Z,99868.81
2019-02-19T21:50:37.802Z,99873.53
2019-02-19T21:53:07.215Z,99869.23
2019-02-19T21:55:55.608Z,99873.92
2019-02-19T21:58:44.095Z,99872.23
2019-02-19T22:01:13.390Z,99882.75
2019-02-19T22:03:43.943Z,99872.55
2019-02-19T22:06:13.403Z,99872.73
2019-02-19T22:08:42.879Z,99891.33
2019-02-19T22:11:12.152Z,99877.84
2019-02-19T22:13:41.627Z,99896.75
2019-02-19T22:16:10.914Z,99887.92
2019-02-19T22:18:40.298Z,99876.53
2019-02-19T22:21:28.680Z,99891.45
2019-02-19T22:23:57.961Z,99880.20
2019-02-19T22:26:27.256Z,99892.09
2019-02-19T22:31:31.298Z,99902.61
2019-02-19T22:34:00.687Z,99907.52
2019-02-19T22:36:30.057Z,99907.52
2019-02-19T22:38:59.395Z,99921.09
2019-02-19T22:44:03.815Z,99925.83
2019-02-19T22:46:33.111Z,99933.67
2019-02-19T22:49:02.398Z,99936.22
2019-02-19T22:51:31.683Z,99844.13
2019-02-19T22:54:20.170Z,99924.09
2019-02-19T22:56:49.549Z,99865.66
2019-02-19T22:59:18.861Z,99934.50
2019-02-19T23:04:57.162Z,99895.42
2019-02-19T23:07:26.535Z,99951.05
2019-02-19T23:09:55.824Z,99913.40
2019-02-19T23:12:25.360Z,99954.46
2019-02-19T23:14:54.628Z,99956.54
2019-02-19T23:17:42.813Z,99953.48
2019-02-19T23:23:00.828Z,99868.87
2019-02-19T23:25:30.235Z,99949.11
2019-02-19T23:30:48.281Z,99956.42
2019-02-19T23:33:17.554Z,99957.84
2019-02-19T23:36:05.989Z,99962.95
2019-02-19T23:38:35.268Z,99959.45
2019-02-19T23:41:04.547Z,99921.33
2019-02-19T23:43:34.081Z,99975.52
2019-02-19T23:46:03.380Z,99984.61
2019-02-19T23:48:32.977Z,99990.03
2019-02-19T23:51:02.271Z,99998.25
2019-02-19T23:53:50.599Z,99984.41
2019-02-19T23:56:20.245Z,99986.48
2019-02-19T23:58:49.523Z,99991.72
